Time;durP1;ratioP1;P1;durP2;ratioP2;P2;SDS_P1;SDS_P2;PMS_P1;PMS_P2;Temp;Humidity;BMP_temperature;BMP_pressure;BME280_temperature;BME280_humidity;BME280_pressure;Samples;Min_cycle;Max_cycle;Signal;HPM_P1;HPM_P2
2022/12/09 00:00:42;;;;;;;13.63;5.72;;;0.00;99.90;;;;;;5093098;28;20032;-77
2022/12/09 00:03:09;;;;;;;12.52;5.68;;;-0.10;99.90;;;;;;5092778;28;20043;-77
2022/12/09 00:05:39;;;;;;;13.15;6.10;;;-0.10;99.90;;;;;;5075991;28;20089;-77
2022/12/09 00:08:06;;;;;;;13.50;5.68;;;-0.10;99.90;;;;;;5109280;28;20443;-77
2022/12/09 00:10:33;;;;;;;11.13;5.20;;;-0.10;99.90;;;;;;5092571;28;20044;-77
2022/12/09 00:12:59;;;;;;;14.38;5.97;;;-0.20;99.90;;;;;;5092299;28;20126;-77
2022/12/09 00:15:26;;;;;;;11.27;5.20;;;0.20;99.90;;;;;;5058445;28;20412;-76
2022/12/09 00:17:53;;;;;;;13.02;6.03;;;-0.20;99.90;;;;;;5075779;28;20076;-77
2022/12/09 00:20:19;;;;;;;11.63;6.03;;;-0.20;99.90;;;;;;5075861;28;20407;-77
2022/12/09 00:22:46;;;;;;;10.63;5.00;;;-0.20;99.90;;;;;;5108536;28;20403;-77
2022/12/09 00:25:13;;;;;;;12.60;5.50;;;-0.20;99.90;;;;;;5092143;28;20138;-76
2022/12/09 00:27:39;;;;;;;9.65;4.97;;;-0.20;99.90;;;;;;5058863;28;20132;-77
2022/12/09 00:30:07;;;;;;;12.50;4.85;;;-0.20;99.90;;;;;;5092506;28;20044;-77
2022/12/09 00:32:33;;;;;;;11.73;5.00;;;-0.30;99.90;;;;;;5092074;28;20495;-77
2022/12/09 00:35:00;;;;;;;13.05;5.75;;;-0.30;99.90;;;;;;5092052;28;20051;-77
2022/12/09 00:37:27;;;;;;;11.50;4.75;;;-0.30;99.90;;;;;;5092146;28;20104;-77
2022/12/09 00:39:53;;;;;;;9.40;4.72;;;-0.40;99.90;;;;;;5108048;28;20043;-78
2022/12/09 00:42:20;;;;;;;11.00;4.57;;;-0.40;99.90;;;;;;5075775;28;20139;-77
2022/12/09 00:44:47;;;;;;;10.07;4.85;;;-0.40;99.90;;;;;;5075157;28;20036;-77
2022/12/09 00:47:13;;;;;;;11.40;4.72;;;-0.40;99.90;;;;;;5091853;28;20040;-77
2022/12/09 00:49:40;;;;;;;10.25;4.43;;;-0.50;99.90;;;;;;5075176;28;20460;-78
2022/12/09 00:52:07;;;;;;;8.93;3.97;;;-0.50;99.90;;;;;;5091818;28;20062;-77
2022/12/09 00:54:34;;;;;;;12.63;4.43;;;-0.50;99.90;;;;;;5074495;28;20044;-77
2022/12/09 00:57:01;;;;;;;10.07;4.30;;;-0.50;99.90;;;;;;5091754;28;20066;-77
2022/12/09 00:59:27;;;;;;;10.63;4.35;;;-0.50;99.90;;;;;;5075061;28;20048;-77
2022/12/09 01:01:54;;;;;;;10.38;4.47;;;-0.50;99.90;;;;;;5091202;28;20488;-77
2022/12/09 01:04:24;;;;;;;9.48;3.78;;;-0.50;99.90;;;;;;5091649;28;20048;-77
2022/12/09 01:06:51;;;;;;;8.35;3.83;;;-0.40;99.90;;;;;;5107556;28;20039;-77
2022/12/09 01:09:17;;;;;;;7.70;3.75;;;-0.40;99.90;;;;;;5091289;28;20599;-77
2022/12/09 01:11:44;;;;;;;8.18;4.53;;;-0.40;99.90;;;;;;5091259;28;20098;-77
2022/12/09 01:14:11;;;;;;;9.98;4.15;;;-0.40;99.90;;;;;;5091103;28;20122;-77
2022/12/09 01:16:38;;;;;;;10.18;4.18;;;-0.40;99.90;;;;;;5091142;28;20054;-77
2022/12/09 01:19:08;;;;;;;10.98;4.10;;;-0.50;99.90;;;;;;5091430;28;20139;-77
2022/12/09 01:21:34;;;;;;;9.55;4.18;;;-0.50;99.90;;;;;;5107726;28;20040;-77
2022/12/09 01:24:07;;;;;;;15.18;4.00;;;-0.50;99.90;;;;;;5107621;28;20381;-77
2022/12/09 01:26:34;;;;;;;9.82;3.53;;;-0.50;99.90;;;;;;5091017;28;20039;-77
2022/12/09 01:29:00;;;;;;;10.75;3.80;;;-0.50;99.90;;;;;;5107309;28;20446;-77
2022/12/09 01:31:27;;;;;;;8.20;3.42;;;-0.60;99.90;;;;;;5091196;28;20040;-77
2022/12/09 01:33:55;;;;;;;10.77;3.70;;;-0.60;99.90;;;;;;5057839;28;20044;-77
2022/12/09 01:36:28;;;;;;;9.98;4.05;;;-0.60;99.90;;;;;;5107909;28;20079;-77
2022/12/09 01:38:56;;;;;;;8.55;3.80;;;-0.60;99.90;;;;;;5090498;28;20070;-77
2022/12/09 01:41:24;;;;;;;8.25;3.58;;;-0.60;99.90;;;;;;5107830;28;20036;-77
2022/12/09 01:44:06;;;;;;;8.60;3.70;;;-0.50;99.90;;;;;;5107523;28;20036;-77
2022/12/09 01:46:33;;;;;;;8.90;3.78;;;-0.50;99.90;;;;;;5107527;28;20127;-77
2022/12/09 01:49:00;;;;;;;10.23;4.25;;;-0.50;99.90;;;;;;5090502;28;20126;-77
2022/12/09 01:51:27;;;;;;;8.60;3.85;;;-0.50;99.90;;;;;;5107701;28;20044;-77
2022/12/09 01:53:55;;;;;;;8.38;3.70;;;-0.50;99.90;;;;;;5107418;28;20071;-77
2022/12/09 01:56:27;;;;;;;12.05;4.68;;;-0.40;99.90;;;;;;5091329;28;20040;-78
2022/12/09 01:58:55;;;;;;;9.05;4.22;;;-0.40;99.90;;;;;;5107144;28;20048;-77
2022/12/09 02:01:22;;;;;;;10.48;4.40;;;-0.40;99.90;;;;;;5107473;28;20037;-78
2022/12/09 02:03:49;;;;;;;14.35;4.57;;;-0.40;99.90;;;;;;5090656;28;20040;-77
2022/12/09 02:06:16;;;;;;;12.10;4.22;;;-0.40;99.90;;;;;;5107484;28;20040;-78
2022/12/09 02:08:43;;;;;;;9.75;3.90;;;-0.40;99.90;;;;;;5057551;28;20381;-77
2022/12/09 02:11:23;;;;;;;9.63;4.13;;;-0.40;99.90;;;;;;5091038;28;20051;-77
2022/12/09 02:13:56;;;;;;;8.77;4.18;;;-0.40;99.90;;;;;;5090624;28;20705;-77
2022/12/09 02:16:24;;;;;;;11.27;3.83;;;-0.40;99.90;;;;;;5090549;28;20576;-77
2022/12/09 02:18:54;;;;;;;10.50;4.40;;;0.10;99.90;;;;;;5090106;28;20063;-77
2022/12/09 02:21:36;;;;;;;11.13;4.90;;;-0.50;99.90;;;;;;5093292;28;20055;-77
2022/12/09 02:24:13;;;;;;;9.25;4.28;;;-0.60;99.90;;;;;;5111005;28;20484;-77
2022/12/09 02:26:44;;;;;;;10.80;4.65;;;-0.50;99.90;;;;;;5094931;28;20043;-77
2022/12/09 02:29:24;;;;;;;10.25;4.22;;;-0.60;99.90;;;;;;5093942;28;20396;-77
2022/12/09 02:32:19;;;;;;;14.88;5.13;;;-0.50;99.90;;;;;;5094216;28;20048;-77
2022/12/09 02:34:54;;;;;;;15.55;5.10;;;-0.60;99.90;;;;;;5094574;28;20134;-77
2022/12/09 02:38:04;;;;;;;9.53;4.53;;;-0.60;99.90;;;;;;5094385;28;20046;-77
2022/12/09 02:40:47;;;;;;;9.70;4.30;;;-0.60;99.90;;;;;;5091039;28;20063;-77
2022/12/09 02:43:16;;;;;;;16.90;4.95;;;-0.60;99.90;;;;;;5110521;28;20399;-77
2022/12/09 02:45:44;;;;;;;10.85;4.30;;;-0.60;99.90;;;;;;5093884;28;20089;-77
2022/12/09 02:48:14;;;;;;;11.98;4.25;;;-0.60;99.90;;;;;;5077077;28;20070;-77
2022/12/09 02:50:43;;;;;;;12.13;4.70;;;-0.60;99.90;;;;;;5110479;28;20093;-77
2022/12/09 02:53:12;;;;;;;13.68;5.13;;;-0.60;99.90;;;;;;5110399;28;20074;-77
2022/12/09 02:55:42;;;;;;;11.00;4.78;;;-0.60;99.90;;;;;;5110823;28;20047;-77
2022/12/09 02:58:08;;;;;;;12.93;4.90;;;-0.60;99.90;;;;;;5093486;28;20098;-77
2022/12/09 03:00:36;;;;;;;13.18;5.55;;;-0.70;99.90;;;;;;5093530;28;20067;-77
2022/12/09 03:03:05;;;;;;;11.20;4.70;;;-0.70;99.90;;;;;;5110079;28;20035;-77
2022/12/09 03:05:35;;;;;;;10.00;4.60;;;-0.70;99.90;;;;;;5110764;28;20127;-77
2022/12/09 03:08:23;;;;;;;11.38;4.57;;;-0.70;99.90;;;;;;5093695;28;20496;-77
2022/12/09 03:11:01;;;;;;;9.70;4.22;;;-0.70;99.90;;;;;;5093451;28;20043;-77
2022/12/09 03:13:55;;;;;;;14.05;5.07;;;-0.70;99.90;;;;;;5093415;28;20040;-77
2022/12/09 03:16:36;;;;;;;17.25;4.72;;;-0.60;99.90;;;;;;5106120;28;20044;-77
2022/12/09 03:19:22;;;;;;;11.63;5.32;;;-0.70;99.90;;;;;;5109996;28;20044;-77
2022/12/09 03:21:52;;;;;;;11.02;4.95;;;-0.60;99.90;;;;;;5110015;28;20223;-77
2022/12/09 03:24:33;;;;;;;9.73;4.50;;;-0.80;99.90;;;;;;5109660;28;20051;-77
2022/12/09 03:27:05;;;;;;;10.80;5.00;;;-0.80;99.90;;;;;;5114386;28;20027;-77
2022/12/09 03:29:34;;;;;;;11.68;4.57;;;-0.80;99.90;;;;;;5099510;28;20035;-77
2022/12/09 03:32:00;;;;;;;12.13;4.80;;;-0.80;99.90;;;;;;5091780;28;20496;-77
2022/12/09 03:34:35;;;;;;;11.73;4.57;;;-0.80;99.90;;;;;;5109927;28;20044;-77
2022/12/09 03:37:04;;;;;;;12.10;4.82;;;-0.80;99.90;;;;;;5092946;28;20074;-77
2022/12/09 03:39:35;;;;;;;10.57;4.50;;;-0.80;99.90;;;;;;5109576;28;20055;-77
2022/12/09 03:42:15;;;;;;;12.98;5.32;;;-0.80;99.90;;;;;;5092684;28;20479;-77
2022/12/09 03:44:48;;;;;;;11.98;4.53;;;-0.20;99.90;;;;;;5093100;28;20760;-77
2022/12/09 03:47:15;;;;;;;17.48;5.03;;;-0.80;99.90;;;;;;5109411;28;20499;-77
2022/12/09 03:49:42;;;;;;;9.50;4.25;;;-0.80;99.90;;;;;;5093280;28;20615;-77
2022/12/09 03:52:20;;;;;;;10.77;5.10;;;-0.90;99.90;;;;;;5092467;28;20056;-77
2022/12/09 03:54:52;;;;;;;14.98;4.97;;;-1.00;99.90;;;;;;5093273;28;20043;-77
2022/12/09 03:57:20;;;;;;;9.82;4.85;;;-1.00;99.90;;;;;;5109372;28;20133;-77
2022/12/09 03:59:57;;;;;;;10.20;4.18;;;-1.10;99.90;;;;;;5092641;28;20036;-77
2022/12/09 04:02:25;;;;;;;11.05;5.05;;;-1.00;99.90;;;;;;5092229;28;20040;-77
2022/12/09 04:04:52;;;;;;;9.45;4.40;;;-1.10;99.90;;;;;;5092423;28;20040;-76
2022/12/09 04:07:18;;;;;;;13.50;5.13;;;-1.20;99.90;;;;;;5092383;28;20040;-76
2022/12/09 04:09:45;;;;;;;13.25;5.53;;;-1.20;99.90;;;;;;5109322;28;20514;-77
2022/12/09 04:12:12;;;;;;;11.23;5.07;;;-1.20;99.90;;;;;;5108854;28;20063;-77
2022/12/09 04:14:39;;;;;;;9.27;4.43;;;-1.20;99.90;;;;;;5075956;28;20121;-77
2022/12/09 04:17:05;;;;;;;12.48;5.03;;;-1.20;99.90;;;;;;5058965;28;20039;-76
2022/12/09 04:19:32;;;;;;;10.90;5.15;;;-0.90;99.90;;;;;;5092470;28;20105;-77
2022/12/09 04:21:58;;;;;;;17.77;4.85;;;-1.30;99.90;;;;;;5109130;28;20043;-77
2022/12/09 04:24:25;;;;;;;9.95;4.72;;;-1.30;99.90;;;;;;5108698;28;20576;-77
2022/12/09 04:26:52;;;;;;;12.25;4.70;;;-0.90;99.90;;;;;;5092363;28;20068;-76
2022/12/09 04:29:18;;;;;;;13.57;4.97;;;-0.50;99.90;;;;;;5108813;28;20097;-77
2022/12/09 04:31:45;;;;;;;9.90;4.60;;;-1.40;99.90;;;;;;5075879;28;20113;-77
2022/12/09 04:34:12;;;;;;;11.02;4.60;;;-1.40;99.90;;;;;;5091718;28;20036;-77
2022/12/09 04:36:38;;;;;;;11.70;4.38;;;-1.50;99.90;;;;;;5108770;28;20095;-77
2022/12/09 04:39:05;;;;;;;10.65;4.82;;;-1.50;99.90;;;;;;5058931;28;20052;-77
2022/12/09 04:41:32;;;;;;;10.82;4.28;;;-1.50;99.90;;;;;;5091557;28;20075;-77
2022/12/09 04:44:00;;;;;;;14.20;5.40;;;-1.50;99.90;;;;;;5057656;28;20039;-77
2022/12/09 04:46:26;;;;;;;11.95;5.25;;;-1.60;99.90;;;;;;5108281;28;20504;-77
2022/12/09 04:48:53;;;;;;;14.93;4.82;;;-1.60;99.90;;;;;;5075447;28;20063;-77
2022/12/09 04:51:20;;;;;;;14.57;4.65;;;-1.60;99.90;;;;;;5108044;28;20125;-77
2022/12/09 04:53:46;;;;;;;16.13;5.20;;;-1.60;99.90;;;;;;5108180;28;20500;-77
2022/12/09 04:56:17;;;;;;;16.42;4.95;;;-1.60;99.90;;;;;;5091382;28;20407;-77
2022/12/09 04:58:45;;;;;;;13.27;4.80;;;-1.60;99.90;;;;;;5091513;28;20511;-77
2022/12/09 05:01:14;;;;;;;10.23;4.63;;;-1.60;99.90;;;;;;5091311;28;20092;-77
2022/12/09 05:03:41;;;;;;;10.80;4.95;;;-1.60;99.90;;;;;;5091422;28;20184;-77
2022/12/09 05:06:12;;;;;;;13.73;4.93;;;-1.60;99.90;;;;;;5107840;28;20032;-77
2022/12/09 05:08:40;;;;;;;9.85;4.57;;;-1.70;99.90;;;;;;5108137;28;20044;-77
2022/12/09 05:11:08;;;;;;;17.30;5.65;;;-1.60;99.90;;;;;;5108317;28;20051;-77
2022/12/09 05:13:34;;;;;;;11.63;5.40;;;-1.70;99.90;;;;;;5091073;28;20475;-77
2022/12/09 05:16:10;;;;;;;12.65;4.68;;;-1.70;99.90;;;;;;5091053;28;20194;-77
2022/12/09 05:18:36;;;;;;;11.57;5.25;;;-1.70;99.90;;;;;;5107811;28;20040;-77
2022/12/09 05:21:05;;;;;;;12.32;4.57;;;-1.70;99.90;;;;;;5091517;28;20043;-77
2022/12/09 05:23:33;;;;;;;9.55;4.50;;;-1.70;99.90;;;;;;5091381;28;20623;-77
2022/12/09 05:26:05;;;;;;;13.55;4.50;;;-1.80;99.90;;;;;;5091327;28;20056;-77
2022/12/09 05:28:32;;;;;;;9.98;4.80;;;-1.80;99.90;;;;;;5090901;28;20094;-77
2022/12/09 05:31:04;;;;;;;11.45;4.55;;;-1.80;99.90;;;;;;5107711;28;20043;-77
2022/12/09 05:33:31;;;;;;;10.07;4.68;;;-1.80;99.90;;;;;;5091035;28;20051;-77
2022/12/09 05:35:58;;;;;;;11.10;5.20;;;-1.90;99.90;;;;;;5090791;28;20035;-78
2022/12/09 05:38:25;;;;;;;11.23;5.13;;;-1.90;99.90;;;;;;5090430;28;20047;-77
2022/12/09 05:40:52;;;;;;;12.27;5.63;;;-1.90;99.90;;;;;;5091038;28;20586;-77
2022/12/09 05:43:18;;;;;;;10.15;4.60;;;-1.90;99.90;;;;;;5090807;28;20040;-77
2022/12/09 05:45:45;;;;;;;7.55;3.47;;;-1.90;99.90;;;;;;5090851;28;20054;-77
2022/12/09 05:48:12;;;;;;;13.15;5.03;;;-1.90;99.90;;;;;;5074462;28;20036;-77
2022/12/09 05:50:38;;;;;;;11.10;5.18;;;-2.00;99.90;;;;;;5107338;28;20407;-77
2022/12/09 05:53:05;;;;;;;10.75;4.35;;;-2.00;99.90;;;;;;5074877;28;20040;-77
2022/12/09 05:55:32;;;;;;;12.77;4.75;;;-2.00;99.90;;;;;;5108799;28;20032;-77
2022/12/09 05:57:58;;;;;;;10.68;4.47;;;-2.00;99.90;;;;;;5111649;28;20451;-77
2022/12/09 06:00:25;;;;;;;12.30;5.13;;;-2.00;99.90;;;;;;5111285;28;20075;-77
2022/12/09 06:02:52;;;;;;;15.88;5.20;;;-2.10;99.90;;;;;;5111839;28;20101;-77
2022/12/09 06:05:18;;;;;;;14.45;5.10;;;-2.10;99.90;;;;;;5078756;28;20040;-77
2022/12/09 06:07:45;;;;;;;14.27;5.10;;;-2.00;99.90;;;;;;5094333;28;20119;-77
2022/12/09 06:10:11;;;;;;;12.23;5.50;;;-1.40;99.90;;;;;;5095164;28;20123;-77
2022/12/09 06:12:38;;;;;;;11.07;5.05;;;-2.10;99.90;;;;;;5094738;28;20040;-77
2022/12/09 06:15:06;;;;;;;11.80;5.57;;;-1.50;99.90;;;;;;5111198;28;20147;-77
2022/12/09 06:17:32;;;;;;;11.65;5.47;;;-2.10;99.90;;;;;;5094102;28;20484;-77
2022/12/09 06:20:02;;;;;;;10.45;5.60;;;-1.60;99.90;;;;;;5078116;28;20105;-77
2022/12/09 06:22:29;;;;;;;15.55;6.25;;;-2.10;99.90;;;;;;5078072;28;20450;-77
2022/12/09 06:24:56;;;;;;;14.50;5.93;;;-2.10;99.90;;;;;;5078334;28;20035;-77
2022/12/09 06:27:22;;;;;;;16.20;6.38;;;-2.20;99.90;;;;;;5111146;28;20043;-76
2022/12/09 06:29:49;;;;;;;15.88;6.80;;;-1.60;99.90;;;;;;5077652;28;20055;-77
2022/12/09 06:32:16;;;;;;;19.73;6.82;;;-2.10;99.90;;;;;;5094387;28;20113;-77
2022/12/09 06:34:43;;;;;;;19.20;6.43;;;-2.20;99.90;;;;;;5111198;28;20052;-77
2022/12/09 06:37:09;;;;;;;16.45;7.03;;;-2.20;99.90;;;;;;5111232;28;20388;-77
2022/12/09 06:39:36;;;;;;;13.20;5.80;;;-2.20;99.90;;;;;;5093624;28;20040;-77
2022/12/09 06:42:03;;;;;;;15.75;5.70;;;-2.20;99.90;;;;;;5094155;28;20062;-77
2022/12/09 06:44:29;;;;;;;21.42;6.78;;;-2.20;99.90;;;;;;5093987;28;20121;-77
2022/12/09 06:46:56;;;;;;;15.55;6.40;;;-2.20;99.90;;;;;;5094471;28;20089;-77
2022/12/09 06:49:23;;;;;;;12.00;5.45;;;-2.20;99.90;;;;;;5094297;28;20130;-77
2022/12/09 06:51:49;;;;;;;13.77;5.78;;;-2.20;99.90;;;;;;5093533;28;20044;-77
2022/12/09 06:54:16;;;;;;;17.10;7.00;;;-2.30;99.90;;;;;;5077458;28;20507;-77
2022/12/09 06:56:43;;;;;;;16.63;7.63;;;-2.30;99.90;;;;;;5093882;28;20080;-77
2022/12/09 06:59:10;;;;;;;15.07;7.78;;;-2.30;99.90;;;;;;5077265;28;20036;-77
2022/12/09 07:01:37;;;;;;;18.25;6.07;;;-2.30;99.90;;;;;;5076916;28;20198;-77
2022/12/09 07:04:04;;;;;;;15.95;6.28;;;-2.30;99.90;;;;;;5077350;28;20571;-76
2022/12/09 07:06:37;;;;;;;14.13;6.55;;;-2.30;99.90;;;;;;5092890;28;20491;-77
2022/12/09 07:09:16;;;;;;;15.80;5.53;;;-2.30;99.90;;;;;;5110272;28;20040;-76
2022/12/09 07:11:44;;;;;;;17.17;6.95;;;-2.30;99.90;;;;;;5093373;28;20043;-76
2022/12/09 07:14:12;;;;;;;15.05;6.32;;;-2.30;99.90;;;;;;5109828;28;20089;-76
2022/12/09 07:16:39;;;;;;;18.33;7.40;;;-2.30;99.90;;;;;;5109251;28;20039;-76
2022/12/09 07:19:06;;;;;;;16.25;6.82;;;-2.40;99.90;;;;;;5092971;28;20040;-76
2022/12/09 07:21:33;;;;;;;20.88;6.75;;;-2.40;99.90;;;;;;5108759;28;20120;-76
2022/12/09 07:24:01;;;;;;;15.68;7.13;;;-2.40;99.90;;;;;;5092915;28;20044;-76
2022/12/09 07:26:32;;;;;;;16.98;7.35;;;-2.40;99.90;;;;;;5093255;28;20089;-76
2022/12/09 07:29:01;;;;;;;17.25;7.90;;;-2.40;99.90;;;;;;5109275;28;20120;-76
2022/12/09 07:31:29;;;;;;;17.83;6.82;;;-2.40;99.90;;;;;;5111287;28;20040;-76
2022/12/09 07:33:57;;;;;;;17.02;7.03;;;-2.30;99.90;;;;;;5110072;28;20388;-76
2022/12/09 07:36:25;;;;;;;22.52;7.00;;;-2.30;99.90;;;;;;5076448;28;20500;-76
2022/12/09 07:39:01;;;;;;;29.13;11.32;;;-2.30;99.90;;;;;;5111796;28;20426;-76
2022/12/09 07:41:28;;;;;;;23.95;10.63;;;-2.30;99.90;;;;;;5093256;28;20036;-76
2022/12/09 07:43:54;;;;;;;25.02;10.95;;;-2.30;99.90;;;;;;5092893;28;20130;-77
2022/12/09 07:46:24;;;;;;;22.65;10.45;;;-2.30;99.90;;;;;;5110105;28;20032;-76
2022/12/09 07:48:51;;;;;;;20.33;9.50;;;-2.30;99.90;;;;;;5109172;28;20048;-76
2022/12/09 07:51:17;;;;;;;20.80;10.00;;;-2.30;99.90;;;;;;5076208;28;20036;-77
2022/12/09 07:53:45;;;;;;;24.88;12.38;;;-2.30;99.90;;;;;;5092083;28;20119;-77
2022/12/09 07:56:14;;;;;;;27.75;12.43;;;-1.90;99.90;;;;;;5092296;28;20060;-76
2022/12/09 07:58:42;;;;;;;23.85;11.68;;;-2.30;99.90;;;;;;5095114;28;20060;-76
2022/12/09 08:01:12;;;;;;;24.27;12.23;;;-2.30;99.90;;;;;;5109039;28;20036;-76
2022/12/09 08:03:40;;;;;;;24.73;11.30;;;-2.30;99.90;;;;;;5115020;28;20545;-76
2022/12/09 08:06:13;;;;;;;26.17;12.13;;;-2.30;99.90;;;;;;5092346;28;20039;-77
2022/12/09 08:08:41;;;;;;;21.33;10.30;;;-2.30;99.90;;;;;;5108736;28;20032;-76
2022/12/09 08:11:11;;;;;;;18.65;9.23;;;-2.30;99.90;;;;;;5091891;28;20044;-76
2022/12/09 08:13:40;;;;;;;21.50;10.25;;;-2.30;99.90;;;;;;5092103;28;20040;-76
2022/12/09 08:16:09;;;;;;;24.05;10.50;;;-2.30;99.90;;;;;;5088610;28;20060;-76
2022/12/09 08:18:36;;;;;;;24.48;11.25;;;-2.30;99.90;;;;;;5107290;28;20052;-77
2022/12/09 08:21:05;;;;;;;22.48;10.27;;;-2.30;99.90;;;;;;5107836;28;20046;-76
2022/12/09 08:23:32;;;;;;;23.17;10.50;;;-2.20;99.90;;;;;;5111703;28;20036;-76
2022/12/09 08:25:59;;;;;;;24.00;11.70;;;-2.20;99.90;;;;;;5108138;28;20032;-77
2022/12/09 08:28:27;;;;;;;23.52;11.07;;;-2.20;99.90;;;;;;5091721;28;20059;-76
2022/12/09 08:30:54;;;;;;;27.60;11.10;;;-2.20;99.90;;;;;;5107811;28;20452;-77
2022/12/09 08:33:21;;;;;;;23.48;11.07;;;-2.20;99.90;;;;;;5095686;28;20039;-77
2022/12/09 08:35:48;;;;;;;26.33;11.77;;;-2.20;99.90;;;;;;5090145;28;20044;-76
2022/12/09 08:38:15;;;;;;;29.02;12.85;;;-2.20;99.90;;;;;;5091272;28;20510;-76
2022/12/09 08:40:41;;;;;;;27.48;12.63;;;-2.00;99.90;;;;;;5084095;28;20088;-77
2022/12/09 08:43:08;;;;;;;24.83;11.93;;;-1.80;99.90;;;;;;5079728;28;20043;-78
2022/12/09 08:45:37;;;;;;;28.90;12.55;;;-2.10;99.90;;;;;;5083396;28;20492;-78
2022/12/09 08:48:04;;;;;;;27.55;13.15;;;-2.10;99.90;;;;;;5091962;28;20051;-78
2022/12/09 08:50:30;;;;;;;27.63;12.07;;;-2.10;99.90;;;;;;5091035;28;20039;-78
2022/12/09 08:52:57;;;;;;;27.98;13.65;;;-2.10;99.90;;;;;;5090508;28;20047;-77
2022/12/09 08:55:24;;;;;;;34.50;13.63;;;-2.00;99.90;;;;;;5088647;28;20468;-77
2022/12/09 08:57:51;;;;;;;29.45;13.13;;;-2.00;99.90;;;;;;5090731;28;20048;-77
2022/12/09 09:00:18;;;;;;;26.17;12.35;;;-1.90;99.90;;;;;;5090304;28;20036;-76
2022/12/09 09:02:45;;;;;;;29.52;14.27;;;-1.90;99.90;;;;;;5091109;28;20032;-77
2022/12/09 09:05:12;;;;;;;30.95;14.38;;;-1.90;99.90;;;;;;5090705;28;20043;-76
2022/12/09 09:07:39;;;;;;;29.58;14.02;;;-1.80;99.90;;;;;;5090782;28;20473;-76
2022/12/09 09:10:06;;;;;;;28.58;14.25;;;-1.80;99.90;;;;;;5106980;28;20544;-77
2022/12/09 09:12:33;;;;;;;29.85;13.77;;;-1.80;99.90;;;;;;5107151;28;20086;-77
2022/12/09 09:15:00;;;;;;;31.60;15.13;;;-1.70;99.90;;;;;;5090268;28;20520;-77
2022/12/09 09:17:26;;;;;;;32.38;14.60;;;-1.70;99.90;;;;;;5074507;28;20046;-77
2022/12/09 09:19:53;;;;;;;30.90;14.98;;;-1.70;99.90;;;;;;5090262;28;20076;-78
2022/12/09 09:22:20;;;;;;;29.90;14.38;;;-1.60;99.90;;;;;;5090916;28;20043;-78
2022/12/09 09:24:46;;;;;;;29.25;13.68;;;-1.60;99.90;;;;;;5074632;28;20032;-78
2022/12/09 09:27:13;;;;;;;30.70;15.68;;;-1.50;99.90;;;;;;5089723;28;20032;-78
2022/12/09 09:29:40;;;;;;;28.77;13.93;;;-1.60;99.90;;;;;;5089137;28;20558;-77
2022/12/09 09:32:07;;;;;;;31.50;14.52;;;-1.50;99.90;;;;;;5073410;28;20499;-76
2022/12/09 09:34:34;;;;;;;31.88;15.02;;;-1.40;99.90;;;;;;5089957;28;20040;-77
2022/12/09 09:37:01;;;;;;;30.90;13.60;;;-1.40;99.90;;;;;;5089899;28;20036;-77
2022/12/09 09:39:27;;;;;;;35.17;15.68;;;-1.30;99.90;;;;;;5073392;28;20457;-78
2022/12/09 09:42:04;;;;;;;38.45;16.15;;;-1.20;99.90;;;;;;5073307;28;20028;-77
2022/12/09 09:44:52;;;;;;;39.65;17.50;;;-1.20;99.90;;;;;;5106354;28;20092;-78
2022/12/09 09:47:34;;;;;;;36.42;16.02;;;-1.20;99.90;;;;;;5089847;28;20059;-78
2022/12/09 09:50:31;;;;;;;35.90;15.13;;;-1.10;99.90;;;;;;5090078;28;20419;-77
2022/12/09 09:53:01;;;;;;;36.20;15.40;;;-1.00;99.90;;;;;;5115983;28;20040;-78
2022/12/09 09:55:56;;;;;;;32.22;15.32;;;-0.80;99.90;;;;;;5088614;28;20063;-78
2022/12/09 09:58:38;;;;;;;34.05;15.57;;;-0.70;99.90;;;;;;5080740;28;20055;-78
2022/12/09 10:01:13;;;;;;;38.45;15.27;;;-0.70;99.90;;;;;;5106738;28;20044;-78
2022/12/09 10:03:52;;;;;;;35.15;15.55;;;-0.60;99.90;;;;;;5106482;28;20043;-78
2022/12/09 10:06:40;;;;;;;37.83;17.17;;;-0.60;99.90;;;;;;5107317;28;20485;-77
2022/12/09 10:09:47;;;;;;;36.75;17.15;;;-0.50;99.90;;;;;;5090281;28;20044;-77
2022/12/09 10:12:29;;;;;;;37.60;16.58;;;-0.40;99.90;;;;;;5076636;28;20552;-77
2022/12/09 10:15:17;;;;;;;35.80;16.15;;;-0.40;99.90;;;;;;5080686;28;20093;-77
2022/12/09 10:17:47;;;;;;;34.72;15.57;;;-0.30;99.90;;;;;;5083951;28;20048;-78
2022/12/09 10:20:17;;;;;;;38.33;15.90;;;-0.30;99.90;;;;;;5105876;28;20051;-78
2022/12/09 10:23:01;;;;;;;38.08;16.65;;;-0.20;99.90;;;;;;5089658;28;20059;-78
2022/12/09 10:25:34;;;;;;;36.38;17.13;;;-0.20;99.90;;;;;;5090111;28;20039;-78
2022/12/09 10:28:36;;;;;;;39.10;17.92;;;-0.20;99.90;;;;;;5089272;28;20118;-78
2022/12/09 10:31:09;;;;;;;38.72;17.30;;;-0.10;99.90;;;;;;5074671;28;20044;-78
2022/12/09 10:33:38;;;;;;;38.80;17.58;;;0.00;99.90;;;;;;5089242;28;20032;-77
2022/12/09 10:36:14;;;;;;;45.47;19.38;;;0.00;99.90;;;;;;5089771;28;20043;-77
2022/12/09 10:38:41;;;;;;;40.67;18.63;;;0.00;99.90;;;;;;5089230;28;20083;-78
2022/12/09 10:43:33;;;;;;;40.80;18.08;;;0.10;99.90;;;;;;5106288;28;21460;-77
2022/12/09 10:44:23;;;;;;;47.97;19.48;;;0.10;99.90;;;;;;5111384;28;20504;-77
2022/12/09 10:47:04;;;;;;;47.10;20.23;;;0.20;99.90;;;;;;5094207;28;20048;-77
2022/12/09 10:49:33;;;;;;;46.40;19.92;;;0.30;99.90;;;;;;5093501;28;20101;-77
2022/12/09 10:52:00;;;;;;;48.42;20.65;;;0.30;99.90;;;;;;5076946;28;20123;-77
2022/12/09 10:54:35;;;;;;;44.47;19.83;;;0.30;99.90;;;;;;5107272;28;20101;-77
2022/12/09 10:57:11;;;;;;;40.13;18.37;;;0.30;99.90;;;;;;5087081;28;20040;-77
2022/12/09 10:59:38;;;;;;;;;;;0.30;99.90;;;;;;5110154;28;20051;-77
2022/12/09 11:02:08;;;;;;;40.30;18.52;;;0.40;99.90;;;;;;5092417;28;19926;-77
2022/12/09 11:04:40;;;;;;;61.53;20.92;;;0.30;99.90;;;;;;5109263;28;20036;-77
2022/12/09 11:07:18;;;;;;;49.05;19.85;;;0.30;99.90;;;;;;5109249;28;20112;-76
2022/12/09 11:10:02;;;;;;;100.35;20.50;;;0.30;99.90;;;;;;5109810;28;20419;-76
2022/12/09 11:12:32;;;;;;;149.40;22.55;;;0.20;99.90;;;;;;5093109;28;20123;-77
2022/12/09 11:15:11;;;;;;;148.43;19.77;;;0.20;99.90;;;;;;5092341;28;20059;-76
2022/12/09 11:17:42;;;;;;;57.13;16.48;;;0.10;99.90;;;;;;5092377;28;20055;-77
2022/12/09 11:20:22;;;;;;;42.75;19.63;;;0.10;99.90;;;;;;5092315;28;20127;-76
2022/12/09 11:23:11;;;;;;;83.90;32.08;;;0.00;99.90;;;;;;5092546;28;20304;-77
2022/12/09 11:25:49;;;;;;;64.28;28.63;;;0.00;99.90;;;;;;5089984;28;20036;-77
2022/12/09 11:28:15;;;;;;;48.65;18.58;;;-0.10;99.90;;;;;;5083177;28;20044;-77
2022/12/09 11:30:59;;;;;;;52.50;18.77;;;0.00;99.90;;;;;;5108105;28;20040;-77
2022/12/09 11:33:29;;;;;;;55.78;17.80;;;0.00;99.90;;;;;;5092644;28;20047;-76
2022/12/09 11:36:03;;;;;;;33.88;15.40;;;0.10;99.90;;;;;;5092539;28;20036;-76
2022/12/09 11:38:32;;;;;;;39.33;15.68;;;-0.10;99.90;;;;;;5095446;28;20040;-76
2022/12/09 11:41:08;;;;;;;39.45;16.20;;;0.00;99.90;;;;;;5108880;28;20047;-76
2022/12/09 11:43:37;;;;;;;34.63;15.05;;;0.00;99.90;;;;;;5113100;28;20492;-76
2022/12/09 11:46:26;;;;;;;36.97;17.38;;;0.00;99.90;;;;;;5092198;28;20036;-76
2022/12/09 11:49:01;;;;;;;39.80;16.13;;;0.00;99.90;;;;;;5104621;28;20054;-77
2022/12/09 11:51:40;;;;;;;34.00;16.23;;;0.10;99.90;;;;;;5092564;28;20089;-76
2022/12/09 11:54:16;;;;;;;44.50;15.90;;;0.10;99.90;;;;;;5090577;28;20079;-76
2022/12/09 11:56:43;;;;;;;35.17;15.95;;;0.00;99.90;;;;;;5108925;28;20050;-76
2022/12/09 11:59:16;;;;;;;37.92;15.98;;;0.00;99.90;;;;;;5108458;28;20048;-77
2022/12/09 12:02:12;;;;;;;57.13;18.48;;;0.00;99.90;;;;;;5108555;28;20048;-76
2022/12/09 12:04:58;;;;;;;41.83;16.85;;;0.00;99.90;;;;;;5092555;28;20083;-76
2022/12/09 12:08:02;;;;;;;39.10;15.65;;;0.00;99.90;;;;;;5091299;28;20143;-76
2022/12/09 12:10:40;;;;;;;42.42;18.55;;;0.00;99.90;;;;;;5094298;28;20126;-77
2022/12/09 12:13:22;;;;;;;39.35;17.25;;;0.00;99.90;;;;;;5092290;28;20123;-76
2022/12/09 12:16:17;;;;;;;47.72;18.48;;;0.00;99.90;;;;;;5108968;28;20056;-77
2022/12/09 12:18:52;;;;;;;38.70;17.05;;;0.00;99.90;;;;;;5108893;28;20048;-76
2022/12/09 12:21:44;;;;;;;44.47;17.33;;;0.00;99.90;;;;;;5092109;28;20047;-76
2022/12/09 12:24:39;;;;;;;47.67;17.90;;;0.00;99.90;;;;;;5108997;28;20439;-76
2022/12/09 12:27:27;;;;;;;42.40;18.10;;;0.00;99.90;;;;;;5108555;28;20054;-76
2022/12/09 12:30:17;;;;;;;42.70;17.67;;;0.00;99.90;;;;;;5108551;28;20500;-77
2022/12/09 12:32:44;;;;;;;41.30;16.75;;;0.00;99.90;;;;;;5092326;28;20373;-76
2022/12/09 12:35:44;;;;;;;37.28;16.67;;;0.00;99.90;;;;;;5107733;28;20046;-77
2022/12/09 12:39:02;;;;;;;42.78;17.40;;;0.00;99.90;;;;;;5111008;28;20115;-77
2022/12/09 12:41:56;;;;;;;44.60;18.30;;;0.10;99.90;;;;;;5046189;28;20088;-78
2022/12/09 12:48:06;;;;;;;46.30;16.88;;;0.10;99.90;;;;;;5013995;28;20077;-77
2022/12/09 12:50:48;;;;;;;55.17;17.73;;;0.10;99.90;;;;;;5103355;28;20043;-77
2022/12/09 12:53:15;;;;;;;42.67;17.40;;;0.10;99.90;;;;;;5088575;28;20035;-77
2022/12/09 12:55:51;;;;;;;45.00;18.40;;;0.10;99.90;;;;;;5113259;28;20047;-76
2022/12/09 12:58:51;;;;;;;44.78;18.17;;;0.00;99.90;;;;;;5090359;28;20047;-77
2022/12/09 13:01:40;;;;;;;47.15;17.55;;;0.10;99.90;;;;;;5090783;28;20055;-78